Time;durP1;ratioP1;P1;durP2;ratioP2;P2;SDS_P1;SDS_P2;PMS_P1;PMS_P2;Temp;Humidity;BMP_temperature;BMP_pressure;BME280_temperature;BME280_humidity;BME280_pressure;Samples;Min_cycle;Max_cycle;Signal;HPM_P1;HPM_P2
2021/12/04 00:01:57;;;;;;;19.30;12.98;;;5.00;99.90;;;;;;5054396;28;20021;-74
2021/12/04 00:04:45;;;;;;;20.40;13.80;;;4.90;99.90;;;;;;5054392;28;20025;-74
2021/12/04 00:07:11;;;;;;;21.75;13.60;;;5.00;99.90;;;;;;5052837;28;20045;-74
2021/12/04 00:09:37;;;;;;;20.60;13.80;;;5.00;99.90;;;;;;5052790;28;20059;-74
2021/12/04 00:12:05;;;;;;;19.58;13.15;;;5.00;99.90;;;;;;5054310;28;20534;-74
2021/12/04 00:14:33;;;;;;;18.60;12.48;;;4.90;99.90;;;;;;5052868;28;20116;-74
2021/12/04 00:16:59;;;;;;;21.08;13.50;;;5.00;99.90;;;;;;5054204;28;20056;-74
2021/12/04 00:19:26;;;;;;;21.20;13.23;;;5.00;99.90;;;;;;5054092;28;20033;-74
2021/12/04 00:21:52;;;;;;;21.63;13.43;;;5.00;99.90;;;;;;5054067;28;20017;-74
2021/12/04 00:24:19;;;;;;;25.67;14.38;;;5.00;99.90;;;;;;5053961;28;20032;-74
2021/12/04 00:26:46;;;;;;;21.65;13.93;;;5.00;99.90;;;;;;5054153;28;20029;-74
2021/12/04 00:29:12;;;;;;;21.58;13.48;;;5.00;99.90;;;;;;5052836;28;20017;-74
2021/12/04 00:31:43;;;;;;;25.58;14.35;;;5.00;99.90;;;;;;5054050;28;20433;-74
2021/12/04 00:34:09;;;;;;;30.17;16.45;;;5.00;99.90;;;;;;5053741;28;20021;-74
2021/12/04 00:50:01;;;;;;;21.65;13.98;;;4.90;99.90;;;;;;5049390;28;20044;-74
2021/12/04 00:52:27;;;;;;;24.48;14.77;;;5.00;99.90;;;;;;5033735;28;20037;-74
2021/12/04 00:54:52;;;;;;;27.30;15.68;;;5.00;99.90;;;;;;5033498;28;20432;-74
2021/12/04 00:57:18;;;;;;;26.38;15.73;;;5.00;99.90;;;;;;5033348;28;20057;-74
2021/12/04 00:59:44;;;;;;;27.77;16.25;;;5.00;99.90;;;;;;5033463;28;20108;-74
2021/12/04 01:02:09;;;;;;;27.90;15.88;;;5.00;99.90;;;;;;5051136;28;20082;-74
2021/12/04 01:04:35;;;;;;;28.65;16.58;;;5.00;99.90;;;;;;5053327;28;20025;-74
2021/12/04 01:07:01;;;;;;;30.15;17.70;;;5.00;99.90;;;;;;5053225;28;20021;-74
2021/12/04 01:09:27;;;;;;;37.47;18.33;;;5.10;99.90;;;;;;5053019;28;20021;-74
2021/12/04 01:11:54;;;;;;;46.15;20.50;;;5.10;99.90;;;;;;5053173;28;20095;-74
2021/12/04 01:14:23;;;;;;;34.60;19.30;;;5.10;99.90;;;;;;5053253;28;20021;-74
2021/12/04 01:16:49;;;;;;;27.83;16.90;;;5.10;99.90;;;;;;5053099;28;20044;-74
2021/12/04 01:19:15;;;;;;;25.10;15.98;;;5.10;99.90;;;;;;5053058;28;20140;-74
2021/12/04 01:21:42;;;;;;;27.60;16.30;;;5.10;99.90;;;;;;5053106;28;20767;-74
2021/12/04 01:24:08;;;;;;;32.80;17.23;;;5.00;99.90;;;;;;5052886;28;20025;-74
2021/12/04 01:26:33;;;;;;;34.60;18.27;;;5.00;99.90;;;;;;5053093;28;20025;-74
2021/12/04 01:28:59;;;;;;;29.95;16.52;;;5.00;99.90;;;;;;5052877;28;20419;-74
2021/12/04 01:31:25;;;;;;;30.83;17.00;;;5.10;99.90;;;;;;5052909;28;20414;-74
2021/12/04 01:33:50;;;;;;;43.78;19.63;;;5.10;99.90;;;;;;5052747;28;20146;-74
2021/12/04 01:36:16;;;;;;;31.73;17.20;;;5.10;99.90;;;;;;5052675;28;20103;-74
2021/12/04 01:38:42;;;;;;;25.35;15.30;;;5.10;99.90;;;;;;5052625;28;20123;-74
2021/12/04 01:41:08;;;;;;;24.48;15.20;;;5.10;99.90;;;;;;5052094;28;20025;-74
2021/12/04 01:43:34;;;;;;;33.55;16.52;;;5.00;99.90;;;;;;5052586;28;20023;-74
2021/12/04 01:46:00;;;;;;;29.65;15.70;;;5.10;99.90;;;;;;5052541;28;20108;-74
2021/12/04 01:48:26;;;;;;;27.55;14.38;;;5.00;99.90;;;;;;5052474;28;20074;-74
2021/12/04 01:50:52;;;;;;;27.35;14.48;;;5.10;99.90;;;;;;5052380;28;20513;-74
2021/12/04 01:53:19;;;;;;;23.58;14.32;;;5.10;99.90;;;;;;5051123;28;20061;-74
2021/12/04 01:55:44;;;;;;;30.73;15.68;;;5.00;99.90;;;;;;5052347;28;20037;-74
2021/12/04 01:58:11;;;;;;;23.75;13.95;;;5.10;99.90;;;;;;5050939;28;20032;-74
2021/12/04 02:00:39;;;;;;;28.35;15.73;;;5.00;99.90;;;;;;5052159;28;20073;-74
2021/12/04 02:03:08;;;;;;;26.13;14.63;;;5.10;99.90;;;;;;5052223;28;20083;-74
2021/12/04 02:05:38;;;;;;;21.67;13.07;;;5.10;99.90;;;;;;5052212;28;20025;-74
2021/12/04 02:08:12;;;;;;;22.63;12.95;;;5.10;99.90;;;;;;5051611;28;20052;-74
2021/12/04 02:10:38;;;;;;;22.50;13.18;;;5.00;99.90;;;;;;5052222;28;20029;-74
2021/12/04 02:13:04;;;;;;;22.70;13.40;;;5.00;99.90;;;;;;5052013;28;20499;-74
2021/12/04 02:15:30;;;;;;;19.35;12.60;;;5.10;99.90;;;;;;5052126;28;20115;-74
2021/12/04 02:17:56;;;;;;;20.70;13.68;;;5.10;99.90;;;;;;5052075;28;20057;-74
2021/12/04 02:20:25;;;;;;;22.35;13.40;;;5.10;99.90;;;;;;5052067;28;20025;-74
2021/12/04 02:22:51;;;;;;;23.88;14.40;;;5.10;99.90;;;;;;5047271;28;20022;-74
2021/12/04 02:25:17;;;;;;;22.38;13.77;;;5.10;99.90;;;;;;5032023;28;20045;-74
2021/12/04 02:27:44;;;;;;;31.48;15.82;;;5.10;99.90;;;;;;5031958;28;20104;-74
2021/12/04 02:30:16;;;;;;;23.05;14.20;;;5.10;99.90;;;;;;5031969;28;20086;-74
2021/12/04 02:32:43;;;;;;;22.27;13.48;;;5.10;99.90;;;;;;5032058;28;20455;-74
2021/12/04 02:35:11;;;;;;;23.52;13.63;;;5.10;99.90;;;;;;5031785;28;20037;-74
2021/12/04 02:37:38;;;;;;;25.88;14.02;;;5.10;99.90;;;;;;5031835;28;20032;-74
2021/12/04 02:40:06;;;;;;;21.63;13.40;;;5.10;99.90;;;;;;5031557;28;20045;-74
2021/12/04 02:42:32;;;;;;;22.60;13.23;;;5.10;99.90;;;;;;5049633;28;20109;-74
2021/12/04 02:45:00;;;;;;;21.20;13.68;;;5.10;99.90;;;;;;5051515;28;20478;-74
2021/12/04 02:47:27;;;;;;;23.35;13.60;;;5.10;99.90;;;;;;5051622;28;20040;-74
2021/12/04 02:49:54;;;;;;;19.35;12.27;;;5.10;99.90;;;;;;5051550;28;20055;-74
2021/12/04 02:52:20;;;;;;;23.95;13.77;;;5.10;99.90;;;;;;5053416;28;20037;-74
2021/12/04 02:54:46;;;;;;;21.42;13.48;;;5.10;99.90;;;;;;5055666;28;20028;-74
2021/12/04 02:57:14;;;;;;;27.27;15.57;;;5.10;99.90;;;;;;5055528;28;20395;-74
2021/12/04 02:59:41;;;;;;;27.42;15.15;;;5.10;99.90;;;;;;5055515;28;20037;-73
2021/12/04 03:02:18;;;;;;;30.83;16.05;;;5.10;99.90;;;;;;5055576;28;20025;-74
2021/12/04 03:04:45;;;;;;;33.75;16.70;;;5.10;99.90;;;;;;5055445;28;20021;-74
2021/12/04 03:07:11;;;;;;;31.15;17.05;;;5.10;99.90;;;;;;5054012;28;20112;-74
2021/12/04 03:09:37;;;;;;;40.55;18.17;;;5.20;99.90;;;;;;5055359;28;20033;-74
2021/12/04 03:12:05;;;;;;;35.83;18.05;;;5.20;99.90;;;;;;5055471;28;20025;-74
2021/12/04 03:14:31;;;;;;;37.65;18.30;;;5.20;99.90;;;;;;5055423;28;20417;-74
2021/12/04 03:16:57;;;;;;;37.60;19.08;;;5.10;99.90;;;;;;5055276;28;20074;-73
2021/12/04 03:19:23;;;;;;;37.85;17.92;;;5.20;99.90;;;;;;5055222;28;20052;-74
2021/12/04 03:21:48;;;;;;;32.03;17.10;;;5.10;99.90;;;;;;5055068;28;20024;-74
2021/12/04 03:24:16;;;;;;;43.92;19.13;;;5.10;99.90;;;;;;5039116;28;20060;-74
2021/12/04 03:26:42;;;;;;;51.17;19.90;;;5.20;99.90;;;;;;5035203;28;20021;-74
2021/12/04 03:29:12;;;;;;;36.45;17.60;;;5.10;99.90;;;;;;5035195;28;20391;-74
2021/12/04 03:42:37;;;;;;;59.20;21.52;;;5.20;99.90;;;;;;5053229;28;20451;-74
2021/12/04 03:45:05;;;;;;;73.25;22.60;;;5.10;99.90;;;;;;5054851;28;20031;-74
2021/12/04 03:47:31;;;;;;;54.60;20.85;;;5.10;99.90;;;;;;5054700;28;20052;-74
2021/12/04 03:49:57;;;;;;;40.20;18.23;;;5.10;99.90;;;;;;5054690;28;20047;-74
2021/12/04 03:52:23;;;;;;;67.05;22.25;;;5.10;99.90;;;;;;5054709;28;20112;-73
2021/12/04 03:54:49;;;;;;;53.72;21.30;;;5.10;99.90;;;;;;5054553;28;20112;-73
2021/12/04 03:57:15;;;;;;;62.83;21.00;;;5.10;99.90;;;;;;5053308;28;20426;-74
2021/12/04 03:59:45;;;;;;;61.35;22.33;;;5.10;99.90;;;;;;5054500;28;20036;-74
2021/12/04 04:02:13;;;;;;;68.35;21.92;;;5.20;99.90;;;;;;5054448;28;20075;-73
2021/12/04 04:04:39;;;;;;;59.50;20.55;;;5.10;99.90;;;;;;5054471;28;20021;-74
2021/12/04 04:07:06;;;;;;;75.65;23.05;;;5.20;99.90;;;;;;5054376;28;20074;-74
2021/12/04 04:09:32;;;;;;;49.97;21.75;;;5.20;99.90;;;;;;5054452;28;20040;-74
2021/12/04 04:11:58;;;;;;;70.82;23.08;;;5.20;99.90;;;;;;5054284;28;20032;-74
2021/12/04 04:14:24;;;;;;;66.47;21.98;;;5.10;99.90;;;;;;5054354;28;20032;-74
2021/12/04 04:16:53;;;;;;;61.08;21.08;;;5.20;99.90;;;;;;5054212;28;20057;-74
2021/12/04 04:19:19;;;;;;;69.60;21.70;;;5.20;99.90;;;;;;5054126;28;20056;-74
2021/12/04 04:21:44;;;;;;;74.10;23.70;;;5.20;99.90;;;;;;5054076;28;20076;-74
2021/12/04 04:24:15;;;;;;;90.63;26.13;;;5.20;99.90;;;;;;5054105;28;20529;-74
2021/12/04 04:26:43;;;;;;;70.20;23.20;;;5.20;99.90;;;;;;5054073;28;20383;-74
2021/12/04 04:29:09;;;;;;;128.27;27.60;;;5.20;99.90;;;;;;5052614;28;20024;-74
2021/12/04 04:31:36;;;;;;;76.65;24.33;;;5.20;99.90;;;;;;5054010;28;20100;-74
2021/12/04 04:34:04;;;;;;;88.25;25.23;;;5.20;99.90;;;;;;5053850;28;20021;-76
2021/12/04 04:58:48;;;;;;;101.28;27.17;;;5.20;99.90;;;;;;5053425;28;20040;-73
2021/12/04 05:12:12;;;;;;;121.60;28.75;;;5.30;99.90;;;;;;5053469;28;20032;-73
2021/12/04 05:14:41;;;;;;;137.18;30.25;;;5.30;99.90;;;;;;5051888;28;20024;-73
2021/12/04 05:17:14;;;;;;;101.78;28.58;;;5.20;99.90;;;;;;5052626;28;20458;-73
2021/12/04 05:19:53;;;;;;;79.35;25.65;;;5.20;99.90;;;;;;5052494;28;20039;-73
2021/12/04 05:22:19;;;;;;;142.98;30.02;;;5.30;99.90;;;;;;5052422;28;20103;-75
2021/12/04 05:24:45;;;;;;;147.75;31.17;;;5.30;99.90;;;;;;5050355;28;20113;-75
2021/12/04 05:27:11;;;;;;;112.57;26.45;;;5.20;99.90;;;;;;5052510;28;20071;-75
2021/12/04 05:29:37;;;;;;;97.70;25.42;;;5.30;99.90;;;;;;5052456;28;20116;-75
2021/12/04 05:32:04;;;;;;;86.32;25.20;;;5.30;99.90;;;;;;5052852;28;20105;-75
2021/12/04 05:34:30;;;;;;;179.60;30.92;;;5.30;99.90;;;;;;5052571;28;20482;-75
2021/12/04 05:36:56;;;;;;;140.82;29.27;;;5.30;99.90;;;;;;5052684;28;20142;-75
2021/12/04 05:39:22;;;;;;;126.95;27.45;;;5.30;99.90;;;;;;5051046;28;20047;-75
2021/12/04 05:41:48;;;;;;;176.00;30.95;;;5.30;99.90;;;;;;5052574;28;20021;-75
2021/12/04 05:44:16;;;;;;;78.75;24.85;;;5.20;99.90;;;;;;5052530;28;20463;-75
2021/12/04 05:46:53;;;;;;;111.60;27.80;;;5.20;99.90;;;;;;5052434;28;20025;-75
2021/12/04 05:49:24;;;;;;;167.52;28.98;;;5.20;99.90;;;;;;5052590;28;20017;-75
2021/12/04 05:52:18;;;;;;;136.38;29.05;;;5.20;99.90;;;;;;5052166;28;20029;-75
2021/12/04 05:57:05;;;;;;;124.78;28.52;;;5.20;99.90;;;;;;5052558;28;20459;-75
2021/12/04 05:59:30;;;;;;;190.30;32.80;;;5.20;99.90;;;;;;5050802;28;20025;-75
2021/12/04 06:01:56;;;;;;;108.95;28.88;;;5.20;99.90;;;;;;5052244;28;20091;-75
2021/12/04 06:04:22;;;;;;;127.53;29.15;;;5.20;99.90;;;;;;5050866;28;20040;-75
2021/12/04 06:06:48;;;;;;;165.77;33.10;;;5.20;99.90;;;;;;5052076;28;20082;-75
2021/12/04 06:09:14;;;;;;;232.60;36.78;;;5.20;99.90;;;;;;5052507;28;20336;-75
2021/12/04 06:11:39;;;;;;;87.28;28.38;;;5.20;99.90;;;;;;5052099;28;20021;-75
2021/12/04 06:14:05;;;;;;;138.63;29.40;;;5.20;99.90;;;;;;5052031;28;20029;-75
2021/12/04 06:16:31;;;;;;;230.32;34.60;;;5.30;99.90;;;;;;5051992;28;20029;-75
2021/12/04 06:19:05;;;;;;;158.70;32.55;;;5.20;99.90;;;;;;5051893;28;20025;-75
2021/12/04 06:24:15;;;;;;;336.80;41.05;;;5.20;99.90;;;;;;5035802;28;20059;-75
2021/12/04 06:26:41;;;;;;;187.07;34.90;;;5.20;99.90;;;;;;5031251;28;20409;-75
2021/12/04 06:29:06;;;;;;;139.75;32.78;;;5.20;99.90;;;;;;5031966;28;20483;-75
2021/12/04 06:31:32;;;;;;;213.05;35.03;;;5.20;99.90;;;;;;5031872;28;20178;-75
2021/12/04 06:33:58;;;;;;;102.82;29.80;;;5.20;99.90;;;;;;5031746;28;20085;-75
2021/12/04 06:36:25;;;;;;;146.70;32.92;;;5.30;99.90;;;;;;5038250;28;20033;-75
2021/12/04 06:38:51;;;;;;;206.65;36.33;;;5.20;99.90;;;;;;5050879;28;20051;-75
2021/12/04 06:41:17;;;;;;;248.93;38.47;;;5.30;99.90;;;;;;5049698;28;20083;-75
2021/12/04 06:43:49;;;;;;;182.45;35.83;;;5.30;99.90;;;;;;5051605;28;20026;-75
2021/12/04 06:46:16;;;;;;;103.97;30.27;;;5.30;99.90;;;;;;5051585;28;20131;-75
2021/12/04 06:48:59;;;;;;;126.95;31.90;;;5.30;99.90;;;;;;5051622;28;20395;-75
2021/12/04 06:53:58;;;;;;;179.27;34.42;;;5.30;99.90;;;;;;5051559;28;20627;-75
2021/12/04 06:56:30;;;;;;;143.07;34.55;;;5.30;99.90;;;;;;5051484;28;20032;-75
2021/12/04 06:58:56;;;;;;;169.02;37.38;;;5.30;99.90;;;;;;5051418;28;20491;-75
2021/12/04 07:01:22;;;;;;;134.30;33.67;;;5.30;99.90;;;;;;5049698;28;20033;-76
2021/12/04 07:03:48;;;;;;;181.55;35.30;;;5.30;99.90;;;;;;5050838;28;20017;-75
2021/12/04 07:06:14;;;;;;;118.32;30.45;;;5.30;99.90;;;;;;5050917;28;20043;-75
2021/12/04 07:08:39;;;;;;;178.27;36.60;;;5.20;99.90;;;;;;5051247;28;20475;-76
2021/12/04 07:11:06;;;;;;;106.25;30.83;;;5.30;99.90;;;;;;5049874;28;20375;-75
2021/12/04 07:13:32;;;;;;;128.55;33.25;;;5.30;99.90;;;;;;5051408;28;20025;-75
2021/12/04 07:16:02;;;;;;;152.05;35.05;;;5.30;99.90;;;;;;5051373;28;20387;-75
2021/12/04 07:18:28;;;;;;;184.90;36.78;;;5.30;99.90;;;;;;5051242;28;20025;-76
2021/12/04 07:20:54;;;;;;;189.30;36.85;;;5.30;99.90;;;;;;5051328;28;20368;-75
2021/12/04 07:23:20;;;;;;;133.90;32.97;;;5.30;99.90;;;;;;5042715;28;20101;-76
2021/12/04 07:25:45;;;;;;;148.27;33.88;;;5.30;99.90;;;;;;5031377;28;20391;-75
2021/12/04 07:28:11;;;;;;;148.02;34.60;;;5.30;99.90;;;;;;5031410;28;20341;-75
2021/12/04 07:30:36;;;;;;;139.10;34.85;;;5.30;99.90;;;;;;5029923;28;20025;-75
2021/12/04 07:33:02;;;;;;;186.45;37.83;;;5.30;99.90;;;;;;5031257;28;20061;-76
2021/12/04 07:35:27;;;;;;;130.68;32.83;;;5.30;99.90;;;;;;5031196;28;20028;-76
2021/12/04 07:37:53;;;;;;;116.80;32.72;;;5.30;99.90;;;;;;5032423;28;20108;-75
2021/12/04 07:40:19;;;;;;;156.02;35.05;;;5.40;99.90;;;;;;5034916;28;20080;-76
2021/12/04 07:42:45;;;;;;;128.40;32.88;;;5.40;99.90;;;;;;5054230;28;20395;-75
2021/12/04 07:45:11;;;;;;;142.15;34.03;;;5.30;99.90;;;;;;5054565;28;20025;-76
2021/12/04 07:47:36;;;;;;;165.90;34.90;;;5.40;99.90;;;;;;5054350;28;20435;-76
2021/12/04 07:50:06;;;;;;;113.65;31.25;;;5.30;99.90;;;;;;5052901;28;20069;-76
2021/12/04 07:52:32;;;;;;;149.25;33.25;;;5.30;99.90;;;;;;5054304;28;20475;-76
2021/12/04 07:54:57;;;;;;;133.75;32.03;;;5.20;99.90;;;;;;5054135;28;20048;-76
2021/12/04 07:57:24;;;;;;;110.90;30.35;;;5.30;99.90;;;;;;5054180;28;20017;-76
2021/12/04 07:59:50;;;;;;;121.82;30.90;;;5.30;99.90;;;;;;5054177;28;20029;-76
2021/12/04 08:02:16;;;;;;;115.72;31.30;;;5.30;99.90;;;;;;5054489;28;20471;-76
2021/12/04 08:04:42;;;;;;;118.65;31.25;;;5.40;99.90;;;;;;5054648;28;20032;-76
2021/12/04 08:07:07;;;;;;;178.88;34.80;;;5.40;99.90;;;;;;5054418;28;20021;-76
2021/12/04 08:09:33;;;;;;;119.95;29.42;;;5.40;99.90;;;;;;5053069;28;20036;-76
2021/12/04 08:11:59;;;;;;;136.82;30.80;;;5.40;99.90;;;;;;5053094;28;20025;-76
2021/12/04 08:14:24;;;;;;;123.55;29.27;;;5.40;99.90;;;;;;5054391;28;20076;-76
2021/12/04 08:16:50;;;;;;;111.68;27.80;;;5.40;99.90;;;;;;5054068;28;20028;-75
2021/12/04 08:19:16;;;;;;;133.57;28.90;;;5.40;99.90;;;;;;5054402;28;20044;-75
2021/12/04 08:21:41;;;;;;;146.55;28.75;;;5.40;99.90;;;;;;5054153;28;20467;-75
2021/12/04 08:24:07;;;;;;;164.27;29.80;;;5.40;99.90;;;;;;5053983;28;20025;-75
2021/12/04 08:26:38;;;;;;;156.73;29.15;;;5.40;99.90;;;;;;5054177;28;20028;-75
2021/12/04 08:29:05;;;;;;;116.80;26.00;;;5.40;99.90;;;;;;5052787;28;20029;-75
2021/12/04 08:31:31;;;;;;;143.35;27.83;;;5.40;99.90;;;;;;5054012;28;20413;-75
2021/12/04 08:33:57;;;;;;;152.00;27.50;;;5.30;99.90;;;;;;5053858;28;20087;-75
2021/12/04 08:36:23;;;;;;;99.63;23.85;;;5.40;99.90;;;;;;5053239;28;20033;-75
2021/12/04 08:38:49;;;;;;;78.30;21.80;;;5.40;99.90;;;;;;5053346;28;20063;-75
2021/12/04 08:41:16;;;;;;;110.55;24.17;;;5.40;99.90;;;;;;5053451;28;20475;-75
2021/12/04 08:43:42;;;;;;;96.55;22.58;;;5.40;99.90;;;;;;5053311;28;20017;-75
2021/12/04 08:46:08;;;;;;;96.88;23.33;;;5.40;99.90;;;;;;5053413;28;20104;-75
2021/12/04 08:48:34;;;;;;;123.07;25.35;;;5.40;99.90;;;;;;5053073;28;20021;-75
2021/12/04 08:51:00;;;;;;;113.13;25.02;;;5.40;99.90;;;;;;5052481;28;20439;-75
2021/12/04 08:53:27;;;;;;;115.20;24.30;;;5.40;99.90;;;;;;5052209;28;20029;-75
2021/12/04 08:55:53;;;;;;;89.32;22.60;;;5.40;99.90;;;;;;5053425;28;20363;-75
2021/12/04 08:58:20;;;;;;;103.55;23.45;;;5.40;99.90;;;;;;5053564;28;20036;-75
2021/12/04 09:00:49;;;;;;;142.75;26.65;;;5.40;99.90;;;;;;5051966;28;20339;-75
2021/12/04 09:03:22;;;;;;;106.72;24.92;;;5.50;99.90;;;;;;5053367;28;20062;-75
2021/12/04 09:05:50;;;;;;;103.38;24.08;;;5.50;99.90;;;;;;5053200;28;20074;-75
2021/12/04 09:08:16;;;;;;;95.30;24.15;;;5.50;99.90;;;;;;5053197;28;20021;-75
2021/12/04 09:10:43;;;;;;;118.10;23.60;;;5.40;99.90;;;;;;5053262;28;20036;-75
2021/12/04 09:13:10;;;;;;;107.20;24.58;;;5.60;99.90;;;;;;5053219;28;20047;-75
2021/12/04 09:15:39;;;;;;;99.55;23.58;;;5.60;99.90;;;;;;5053172;28;20036;-75
2021/12/04 09:18:05;;;;;;;127.80;26.05;;;5.60;99.90;;;;;;5052607;28;20056;-75
2021/12/04 09:20:32;;;;;;;118.90;24.27;;;5.60;99.90;;;;;;5051280;28;20045;-76
2021/12/04 09:22:59;;;;;;;108.68;24.67;;;5.70;99.90;;;;;;5047605;28;20017;-75
2021/12/04 09:25:26;;;;;;;96.82;21.92;;;5.80;99.90;;;;;;5031689;28;20034;-75
2021/12/04 09:28:17;;;;;;;93.30;23.00;;;5.80;99.90;;;;;;5032906;28;20019;-75
2021/12/04 09:31:07;;;;;;;96.55;23.55;;;5.80;99.90;;;;;;5032989;28;20479;-75
2021/12/04 10:03:36;;;;;;;80.63;21.77;;;5.90;99.90;;;;;;5049055;28;20043;-75
2021/12/04 10:19:51;;;;;;;80.93;20.75;;;5.90;99.90;;;;;;5045534;28;20032;-78
2021/12/04 10:22:25;;;;;;;81.97;22.63;;;5.80;99.90;;;;;;5049458;28;20033;-78
2021/12/04 10:34:02;;;;;;;91.78;24.75;;;5.90;99.90;;;;;;4971264;28;20086;-79
2021/12/04 10:36:36;;;;;;;82.30;23.60;;;6.00;99.90;;;;;;4971113;28;20031;-78
2021/12/04 10:39:05;;;;;;;83.55;21.83;;;6.00;99.90;;;;;;4970348;28;20523;-78
2021/12/04 10:41:39;;;;;;;79.82;21.13;;;6.00;99.90;;;;;;4954705;28;20035;-77
2021/12/04 10:44:18;;;;;;;69.63;19.88;;;6.10;99.90;;;;;;4970947;28;20038;-74
2021/12/04 10:47:00;;;;;;;62.95;20.70;;;6.00;99.90;;;;;;4970775;28;20034;-75
2021/12/04 10:52:27;;;;;;;65.43;19.90;;;6.00;99.90;;;;;;4956098;28;20118;-75
2021/12/04 10:55:29;;;;;;;67.10;18.70;;;6.00;99.90;;;;;;4970484;28;20117;-77
2021/12/04 11:27:44;;;;;;;74.03;22.25;;;6.10;99.90;;;;;;4945968;29;20031;-77
2021/12/04 11:38:26;;;;;;;55.33;20.23;;;6.20;99.90;;;;;;5055253;28;20033;-78
2021/12/04 11:43:30;;;;;;;82.93;30.05;;;6.10;99.90;;;;;;5055362;28;20025;-78
2021/12/04 11:48:39;;;;;;;167.38;74.07;;;6.10;99.90;;;;;;5055033;28;20031;-80
2021/12/04 11:51:15;;;;;;;120.10;52.58;;;6.10;99.90;;;;;;5052741;28;20131;-77
2021/12/04 11:53:41;;;;;;;108.25;40.05;;;6.20;99.90;;;;;;5054883;28;20049;-78
2021/12/04 11:56:33;;;;;;;64.45;24.15;;;6.20;99.90;;;;;;5055172;28;20053;-75
2021/12/04 11:58:58;;;;;;;110.90;49.22;;;6.20;99.90;;;;;;5051000;28;20048;-75
2021/12/04 12:01:31;;;;;;;87.97;36.95;;;6.20;99.90;;;;;;5054435;28;20025;-75
2021/12/04 12:04:07;;;;;;;61.67;25.65;;;6.20;99.90;;;;;;5054186;28;20029;-76
2021/12/04 12:06:41;;;;;;;59.25;23.70;;;6.20;99.90;;;;;;5054718;28;20037;-75
2021/12/04 12:09:14;;;;;;;56.92;22.10;;;6.20;99.90;;;;;;5053912;28;20032;-76
2021/12/04 12:12:08;;;;;;;64.95;24.63;;;6.20;99.90;;;;;;5054156;28;20100;-75
2021/12/04 12:14:50;;;;;;;60.90;28.67;;;6.20;99.90;;;;;;5052364;28;20037;-76
2021/12/04 12:17:28;;;;;;;45.50;22.23;;;6.20;99.90;;;;;;5053663;28;20063;-75
2021/12/04 12:19:54;;;;;;;41.10;21.45;;;6.20;99.90;;;;;;5053025;28;20056;-75
2021/12/04 12:25:44;;;;;;;40.75;17.33;;;6.20;99.90;;;;;;5052016;28;20064;-75
2021/12/04 12:36:30;;;;;;;48.75;22.25;;;6.30;99.90;;;;;;5053674;28;20450;-75
2021/12/04 12:39:15;;;;;;;44.20;19.90;;;6.20;99.90;;;;;;5052784;28;20186;-75
2021/12/04 12:41:49;;;;;;;43.00;20.02;;;6.20;99.90;;;;;;5051248;28;20033;-75
2021/12/04 12:44:31;;;;;;;42.80;20.20;;;6.30;99.90;;;;;;5051548;28;20024;-75
2021/12/04 12:47:05;;;;;;;47.20;21.80;;;6.30;99.90;;;;;;5051846;28;20047;-75
2021/12/04 12:49:36;;;;;;;53.58;25.38;;;6.40;99.90;;;;;;5053576;28;20020;-75
2021/12/04 12:52:10;;;;;;;40.88;18.85;;;6.40;99.90;;;;;;5053751;28;20029;-77
2021/12/04 12:54:38;;;;;;;42.15;24.08;;;6.20;99.90;;;;;;5053982;28;20025;-76
2021/12/04 12:57:09;;;;;;;63.72;40.10;;;6.20;99.90;;;;;;5053946;28;20025;-78
2021/12/04 13:11:34;;;;;;;48.58;24.35;;;6.20;99.90;;;;;;5053662;28;20885;-78
2021/12/04 13:14:12;;;;;;;;;;;6.30;99.90;;;;;;5074514;28;20116;-80
2021/12/04 13:16:41;;;;;;;52.03;21.20;;;6.20;99.90;;;;;;5073610;28;19904;-79
2021/12/04 13:19:11;;;;;;;43.20;22.02;;;6.30;99.90;;;;;;5073639;28;20030;-80
2021/12/04 13:21:39;;;;;;;40.22;20.75;;;6.20;99.90;;;;;;5073963;28;20498;-80
2021/12/04 13:24:10;;;;;;;39.13;19.67;;;6.20;99.90;;;;;;5044649;28;20436;-79
2021/12/04 13:26:39;;;;;;;38.95;19.90;;;6.20;99.90;;;;;;5033757;28;20032;-80
2021/12/04 13:29:07;;;;;;;45.00;20.35;;;6.20;99.90;;;;;;5033639;28;20034;-80
2021/12/04 13:31:37;;;;;;;31.92;18.40;;;6.20;99.90;;;;;;5035833;28;20044;-80
2021/12/04 13:34:07;;;;;;;36.42;19.00;;;6.20;99.90;;;;;;5053680;28;20027;-80
2021/12/04 13:36:33;;;;;;;36.63;18.92;;;6.20;99.90;;;;;;5052965;28;20094;-79
2021/12/04 13:39:15;;;;;;;34.40;19.48;;;6.20;99.90;;;;;;5053340;28;20052;-79
2021/12/04 13:41:44;;;;;;;40.03;21.15;;;6.10;99.90;;;;;;5053512;28;20036;-79
2021/12/04 13:44:14;;;;;;;38.47;20.75;;;6.00;99.90;;;;;;5053412;28;20052;-80
2021/12/04 13:46:45;;;;;;;42.20;21.00;;;6.00;99.90;;;;;;5053429;28;20059;-80
2021/12/04 13:49:14;;;;;;;35.92;20.52;;;6.00;99.90;;;;;;5053347;28;20060;-80
2021/12/04 13:51:40;;;;;;;40.08;20.92;;;6.00;99.90;;;;;;5035520;28;20132;-79
2021/12/04 13:54:06;;;;;;;41.15;22.15;;;6.00;99.90;;;;;;5033466;28;20101;-80
2021/12/04 13:56:32;;;;;;;44.15;22.20;;;6.10;99.90;;;;;;5033343;28;20026;-78
2021/12/04 13:59:02;;;;;;;39.72;21.80;;;6.10;99.90;;;;;;5033183;28;20338;-79
2021/12/04 14:01:42;;;;;;;47.92;22.23;;;6.10;99.90;;;;;;5037264;28;20117;-77
2021/12/04 14:04:15;;;;;;;54.47;21.90;;;6.10;99.90;;;;;;5050153;28;20028;-77
2021/12/04 14:06:47;;;;;;;54.80;23.65;;;6.00;99.90;;;;;;5052005;28;20021;-77
2021/12/04 14:09:12;;;;;;;52.53;24.30;;;6.10;99.90;;;;;;5051591;28;20353;-77
2021/12/04 14:11:40;;;;;;;57.47;23.83;;;6.00;99.90;;;;;;5045385;28;20059;-77
2021/12/04 14:14:15;;;;;;;70.55;26.30;;;6.00;99.90;;;;;;5042019;28;20372;-77
2021/12/04 14:16:43;;;;;;;60.05;24.55;;;6.00;99.90;;;;;;5050214;28;20497;-77
2021/12/04 14:19:17;;;;;;;57.75;24.13;;;5.90;99.90;;;;;;5047464;28;20025;-77
2021/12/04 14:21:55;;;;;;;76.13;27.80;;;5.90;99.90;;;;;;5041814;28;20032;-77
2021/12/04 14:24:28;;;;;;;68.43;26.05;;;5.90;99.90;;;;;;5048686;28;20083;-77
2021/12/04 14:26:58;;;;;;;58.15;24.30;;;5.90;99.90;;;;;;5044479;28;20017;-77
2021/12/04 14:29:26;;;;;;;64.50;24.55;;;5.90;99.90;;;;;;5043610;28;20018;-77
2021/12/04 14:31:53;;;;;;;68.68;24.33;;;5.90;99.90;;;;;;5045520;28;20048;-77
2021/12/04 14:34:21;;;;;;;67.40;25.67;;;5.90;99.90;;;;;;5044841;28;20036;-77
2021/12/04 14:36:47;;;;;;;66.05;24.45;;;6.00;99.90;;;;;;5048393;28;20119;-77
2021/12/04 14:39:23;;;;;;;75.82;25.95;;;6.00;99.90;;;;;;5048022;28;20132;-77
2021/12/04 14:41:48;;;;;;;62.13;24.02;;;6.00;99.90;;;;;;5047005;28;20116;-77
2021/12/04 14:44:14;;;;;;;78.88;24.55;;;6.00;99.90;;;;;;5052698;28;20147;-77
2021/12/04 14:46:40;;;;;;;82.05;25.20;;;6.00;99.90;;;;;;5046728;28;20513;-77
2021/12/04 14:49:09;;;;;;;68.80;24.40;;;6.00;99.90;;;;;;5043599;28;20029;-77
2021/12/04 14:51:35;;;;;;;62.33;22.30;;;6.00;99.90;;;;;;5045268;28;20095;-77
2021/12/04 14:54:02;;;;;;;66.97;22.92;;;6.00;99.90;;;;;;5048741;28;20025;-77
2021/12/04 14:56:30;;;;;;;67.35;23.08;;;6.00;99.90;;;;;;5047868;28;20027;-76
2021/12/04 14:58:57;;;;;;;57.00;19.92;;;6.00;99.90;;;;;;5049533;28;20036;-77
2021/12/04 15:01:26;;;;;;;58.28;21.50;;;6.00;99.90;;;;;;5046126;28;20059;-76
2021/12/04 15:03:58;;;;;;;67.15;21.20;;;6.00;99.90;;;;;;5047444;28;20097;-76
2021/12/04 15:06:25;;;;;;;61.20;20.65;;;6.00;99.90;;;;;;5048461;28;20131;-77
2021/12/04 15:09:15;;;;;;;69.93;21.73;;;6.00;99.90;;;;;;5038465;28;20025;-77
2021/12/04 15:11:44;;;;;;;66.78;20.85;;;6.00;99.90;;;;;;5051125;28;20051;-77
2021/12/04 15:14:13;;;;;;;63.45;21.20;;;6.00;99.90;;;;;;5045405;28;20055;-77
2021/12/04 15:16:57;;;;;;;84.47;22.73;;;6.10;99.90;;;;;;5044138;28;20029;-76
2021/12/04 15:19:45;;;;;;;53.53;19.27;;;6.00;99.90;;;;;;5040965;28;20026;-77
2021/12/04 15:22:19;;;;;;;49.63;18.98;;;6.00;99.90;;;;;;5043273;28;20475;-77
2021/12/04 15:24:45;;;;;;;38.28;15.23;;;6.00;99.90;;;;;;5044874;28;20029;-76
2021/12/04 15:27:16;;;;;;;43.70;17.85;;;6.00;99.90;;;;;;5048908;28;20078;-77
2021/12/04 15:29:45;;;;;;;39.17;15.35;;;6.10;99.90;;;;;;5048906;28;20565;-77
2021/12/04 15:32:14;;;;;;;35.10;15.13;;;6.00;99.90;;;;;;5051250;28;20028;-77
2021/12/04 15:34:52;;;;;;;39.08;16.67;;;6.10;99.90;;;;;;5045512;28;20021;-77
2021/12/04 15:37:28;;;;;;;33.03;14.90;;;6.00;99.90;;;;;;5047104;28;20029;-77
2021/12/04 15:39:54;;;;;;;38.10;14.80;;;6.00;99.90;;;;;;5049603;28;20036;-77
2021/12/04 15:42:30;;;;;;;32.20;14.20;;;6.00;99.90;;;;;;5048140;28;20025;-76
2021/12/04 15:45:47;;;;;;;34.67;15.15;;;5.90;99.90;;;;;;5046714;28;20017;-77
2021/12/04 15:50:54;;;;;;;31.98;12.63;;;6.00;99.90;;;;;;5044051;28;20041;-77
2021/12/04 15:53:21;;;;;;;32.13;12.77;;;6.00;99.90;;;;;;5048653;28;20446;-77